PWSweather.com
Personal Weather Stations
Station Observations
WXGLH1124
Southern Oaks, Indianapolis, IN 46217

Southern OaksIndianapolis, IN 46217

Lat: 39.65113, Lon: -86.16866

Elevation: 720

Station Type: Vantage Pro2

High Low Average
Temperature 88.8°F31.6°F 73.8°F23.2°F 80.0°F26.7°F
Dew Point 76.7°F24.8°F 71.4°F21.9°F 73.7°F23.2°F
Winds 6.0 mph -9.7 mph - Calm Calm 0.7 mph 1.1 mph
Wind Gusts 11.0 mph17.7 mph -- 2.6 mph4.2 mph
Humidity 93% 64% 82%
Pressure 29.93 in1013.50 in 29.84 in1010.50 in -
Precipitation 18.86 in479.00 in - -
Hour Temp Dew Point Humidity Winds Wind Gusts Pressure Precip Precip Rate Daily Precip Total
12:05 AM 74.2°F23.4°C 71.7°F22.1°C 92% Calm Calm -- 29.86 in1011.2 mb 0.51 in13.0 mm 6.12 in155.4 mm 0.51 in13.0 mm
12:09 AM 74.1°F23.4°C 71.6°F22.0°C 92% 1.0 mph WSW1.6 kmh WSW 2.0 mph3.2 kmh 29.87 in1011.5 mb 0.61 in15.5 mm 1.50 in38.1 mm 0.61 in15.5 mm
12:15 AM 74.2°F23.4°C 71.7°F22.1°C 92% Calm Calm 2.0 mph3.2 kmh 29.87 in1011.5 mb 0.68 in17.3 mm 0.70 in17.8 mm 0.68 in17.3 mm
12:20 AM 74.3°F23.5°C 71.8°F22.1°C 92% Calm Calm 6.0 mph9.7 kmh 29.87 in1011.5 mb 0.74 in18.8 mm 0.72 in18.3 mm 0.74 in18.8 mm
12:25 AM 74.2°F23.4°C 71.7°F22.1°C 92% 5.0 mph SW8.0 kmh SW 7.0 mph11.3 kmh 29.87 in1011.5 mb 0.79 in20.1 mm 0.60 in15.2 mm 0.79 in20.1 mm
12:30 AM 74.1°F23.4°C 71.6°F22.0°C 92% 2.0 mph SW3.2 kmh SW 8.0 mph12.9 kmh 29.87 in1011.5 mb 0.80 in20.3 mm 0.12 in3.0 mm 0.80 in20.3 mm
12:35 AM 74.1°F23.4°C 71.6°F22.0°C 92% 2.0 mph SW3.2 kmh SW 5.0 mph8.0 kmh 29.87 in1011.5 mb 0.79 in20.1 mm 0.00 in0.0 mm 0.80 in20.3 mm
12:40 AM 74.0°F23.3°C 71.5°F21.9°C 92% 2.0 mph SW3.2 kmh SW 2.0 mph3.2 kmh 29.87 in1011.5 mb 0.78 in19.8 mm 0.00 in0.0 mm 0.80 in20.3 mm
12:45 AM 74.1°F23.4°C 71.6°F22.0°C 92% Calm Calm 2.0 mph3.2 kmh 29.86 in1011.2 mb 0.55 in14.0 mm 0.00 in0.0 mm 0.80 in20.3 mm
12:50 AM 74.1°F23.4°C 71.6°F22.0°C 92% Calm Calm 4.0 mph6.4 kmh 29.86 in1011.2 mb 0.50 in12.7 mm 0.00 in0.0 mm 0.80 in20.3 mm
12:55 AM 74.1°F23.4°C 71.6°F22.0°C 92% Calm Calm 3.0 mph4.8 kmh 29.86 in1011.2 mb 0.48 in12.2 mm 0.00 in0.0 mm 0.80 in20.3 mm
01:00 AM 74.1°F23.4°C 71.6°F22.0°C 92% 1.0 mph SE1.6 kmh SE 1.0 mph1.6 kmh 29.86 in1011.2 mb 0.47 in11.9 mm 0.00 in0.0 mm 0.80 in20.3 mm
01:04 AM 74.1°F23.4°C 71.6°F22.0°C 92% 1.0 mph WSW1.6 kmh WSW 3.0 mph4.8 kmh 29.86 in1011.2 mb 0.42 in10.7 mm 0.00 in0.0 mm 0.80 in20.3 mm
01:10 AM 74.2°F23.4°C 71.7°F22.1°C 92% Calm Calm 4.0 mph6.4 kmh 29.86 in1011.2 mb 0.33 in8.4 mm 0.00 in0.0 mm 0.80 in20.3 mm
01:15 AM 74.2°F23.4°C 71.7°F22.1°C 92% 2.0 mph WSW3.2 kmh WSW 2.0 mph3.2 kmh 29.86 in1011.2 mb 0.25 in6.4 mm 0.00 in0.0 mm 0.80 in20.3 mm
01:20 AM 74.2°F23.4°C 71.7°F22.1°C 92% Calm Calm 3.0 mph4.8 kmh 29.86 in1011.2 mb 0.18 in4.6 mm 0.00 in0.0 mm 0.80 in20.3 mm
01:25 AM 74.1°F23.4°C 71.6°F22.0°C 92% Calm Calm 3.0 mph4.8 kmh 29.86 in1011.2 mb 0.13 in3.3 mm 0.00 in0.0 mm 0.80 in20.3 mm
01:30 AM 74.1°F23.4°C 71.6°F22.0°C 92% 3.0 mph SW4.8 kmh SW 3.0 mph4.8 kmh 29.86 in1011.2 mb 0.07 in1.8 mm 0.00 in0.0 mm 0.80 in20.3 mm
01:34 AM 74.0°F23.3°C 71.5°F21.9°C 92% 2.0 mph SW3.2 kmh SW 3.0 mph4.8 kmh 29.86 in1011.2 mb 0.06 in1.5 mm 0.00 in0.0 mm 0.80 in20.3 mm
01:40 AM 74.0°F23.3°C 71.5°F21.9°C 92% Calm Calm 1.0 mph1.6 kmh 29.86 in1011.2 mb 0.04 in1.0 mm 0.00 in0.0 mm 0.80 in20.3 mm
01:45 AM 74.0°F23.3°C 71.5°F21.9°C 92% Calm Calm 1.0 mph1.6 kmh 29.86 in1011.2 mb 0.01 in0.3 mm 0.00 in0.0 mm 0.80 in20.3 mm
01:49 AM 74.0°F23.3°C 71.5°F21.9°C 92% Calm Calm 2.0 mph3.2 kmh 29.86 in1011.2 mb 0.01 in0.3 mm 0.00 in0.0 mm 0.80 in20.3 mm
01:55 AM 74.0°F23.3°C 71.5°F21.9°C 92% Calm Calm 4.0 mph6.4 kmh 29.86 in1011.2 mb 0.00 in0.0 mm 0.00 in0.0 mm 0.80 in20.3 mm
02:00 AM 74.0°F23.3°C 71.5°F21.9°C 92% Calm Calm -- 29.85 in1010.8 mb 0.00 in0.0 mm 0.00 in0.0 mm 0.80 in20.3 mm
02:05 AM 74.0°F23.3°C 71.5°F21.9°C 92% Calm Calm -- 29.86 in1011.2 mb 0.00 in0.0 mm 0.00 in0.0 mm 0.80 in20.3 mm
02:10 AM 74.0°F23.3°C 71.5°F21.9°C 92% Calm Calm -- 29.86 in1011.2 mb 0.00 in0.0 mm 0.00 in0.0 mm 0.80 in20.3 mm
02:15 AM 74.0°F23.3°C 71.5°F21.9°C 92% Calm Calm 5.0 mph8.0 kmh 29.86 in1011.2 mb 0.00 in0.0 mm 0.00 in0.0 mm 0.80 in20.3 mm
02:20 AM 74.0°F23.3°C 71.5°F21.9°C 92% Calm Calm 2.0 mph3.2 kmh 29.85 in1010.8 mb 0.00 in0.0 mm 0.00 in0.0 mm 0.80 in20.3 mm
02:25 AM 74.1°F23.4°C 71.6°F22.0°C 92% Calm Calm -- 29.85 in1010.8 mb 0.00 in0.0 mm 0.00 in0.0 mm 0.80 in20.3 mm
02:30 AM 74.1°F23.4°C 71.6°F22.0°C 92% Calm Calm 1.0 mph1.6 kmh 29.85 in1010.8 mb 0.00 in0.0 mm 0.00 in0.0 mm 0.80 in20.3 mm
02:34 AM 74.0°F23.3°C 71.5°F21.9°C 92% Calm Calm 2.0 mph3.2 kmh 29.85 in1010.8 mb 0.00 in0.0 mm 0.00 in0.0 mm 0.80 in20.3 mm
02:40 AM 74.0°F23.3°C 71.5°F21.9°C 92% Calm Calm 5.0 mph8.0 kmh 29.85 in1010.8 mb 0.00 in0.0 mm 0.00 in0.0 mm 0.80 in20.3 mm
02:45 AM 74.0°F23.3°C 71.5°F21.9°C 92% Calm Calm 5.0 mph8.0 kmh 29.84 in1010.5 mb 0.00 in0.0 mm 0.00 in0.0 mm 0.80 in20.3 mm
02:50 AM 74.0°F23.3°C 71.5°F21.9°C 92% 3.0 mph SW4.8 kmh SW 3.0 mph4.8 kmh 29.85 in1010.8 mb 0.00 in0.0 mm 0.00 in0.0 mm 0.80 in20.3 mm
02:55 AM 74.0°F23.3°C 71.5°F21.9°C 92% 1.0 mph SW1.6 kmh SW 8.0 mph12.9 kmh 29.85 in1010.8 mb 0.03 in0.8 mm 0.36 in9.1 mm 0.83 in21.1 mm
02:59 AM 74.0°F23.3°C 71.5°F21.9°C 92% 1.0 mph SW1.6 kmh SW 2.0 mph3.2 kmh 29.85 in1010.8 mb 0.22 in5.6 mm 2.85 in72.4 mm 1.02 in25.9 mm
03:05 AM 74.0°F23.3°C 71.5°F21.9°C 92% Calm Calm 2.0 mph3.2 kmh 29.85 in1010.8 mb 0.25 in6.4 mm 0.03 in0.8 mm 1.05 in26.7 mm
03:10 AM 74.0°F23.3°C 71.5°F21.9°C 92% 2.0 mph WSW3.2 kmh WSW 3.0 mph4.8 kmh 29.84 in1010.5 mb 0.33 in8.4 mm 0.96 in24.4 mm 1.13 in28.7 mm
03:15 AM 73.9°F23.3°C 71.4°F21.9°C 92% Calm Calm 4.0 mph6.4 kmh 29.84 in1010.5 mb 0.45 in11.4 mm 1.44 in36.6 mm 1.25 in31.8 mm
03:20 AM 73.9°F23.3°C 71.4°F21.9°C 92% Calm Calm 2.0 mph3.2 kmh 29.84 in1010.5 mb 0.49 in12.4 mm 0.48 in12.2 mm 1.29 in32.8 mm
03:25 AM 73.9°F23.3°C 71.8°F22.1°C 93% Calm Calm -- 29.84 in1010.5 mb 0.53 in13.5 mm 0.48 in12.2 mm 1.33 in33.8 mm
03:30 AM 73.8°F23.2°C 71.7°F22.1°C 93% Calm Calm 1.0 mph1.6 kmh 29.84 in1010.5 mb 0.55 in14.0 mm 0.24 in6.1 mm 1.35 in34.3 mm
03:35 AM 73.8°F23.2°C 71.7°F22.1°C 93% Calm Calm 1.0 mph1.6 kmh 29.84 in1010.5 mb 0.58 in14.7 mm 0.36 in9.1 mm 1.38 in35.1 mm
03:39 AM 73.8°F23.2°C 71.7°F22.1°C 93% Calm Calm 3.0 mph4.8 kmh 29.84 in1010.5 mb 0.59 in15.0 mm 0.15 in3.8 mm 1.39 in35.3 mm
03:45 AM 73.8°F23.2°C 71.7°F22.1°C 93% 4.0 mph SW6.4 kmh SW 4.0 mph6.4 kmh 29.84 in1010.5 mb 0.60 in15.2 mm 0.10 in2.5 mm 1.40 in35.6 mm
03:50 AM 73.8°F23.2°C 71.7°F22.1°C 93% Calm Calm -- 29.84 in1010.5 mb 0.60 in15.2 mm 0.00 in0.0 mm 1.40 in35.6 mm
03:55 AM 73.8°F23.2°C 71.7°F22.1°C 93% Calm Calm 3.0 mph4.8 kmh 29.84 in1010.5 mb 0.60 in15.2 mm 0.00 in0.0 mm 1.40 in35.6 mm
04:00 AM 73.9°F23.3°C 71.8°F22.1°C 93% Calm Calm 3.0 mph4.8 kmh 29.84 in1010.5 mb 0.45 in11.4 mm 0.00 in0.0 mm 1.40 in35.6 mm
04:04 AM 73.9°F23.3°C 71.8°F22.1°C 93% Calm Calm 2.0 mph3.2 kmh 29.85 in1010.8 mb 0.37 in9.4 mm 0.00 in0.0 mm 1.40 in35.6 mm
04:09 AM 73.9°F23.3°C 71.8°F22.1°C 93% Calm Calm -- 29.85 in1010.8 mb 0.32 in8.1 mm 0.00 in0.0 mm 1.40 in35.6 mm
04:15 AM 73.9°F23.3°C 71.8°F22.1°C 93% Calm Calm 1.0 mph1.6 kmh 29.85 in1010.8 mb 0.23 in5.8 mm 0.00 in0.0 mm 1.40 in35.6 mm
04:20 AM 73.9°F23.3°C 71.4°F21.9°C 92% Calm Calm 3.0 mph4.8 kmh 29.85 in1010.8 mb 0.13 in3.3 mm 0.00 in0.0 mm 1.40 in35.6 mm
04:25 AM 73.9°F23.3°C 71.4°F21.9°C 92% Calm Calm 4.0 mph6.4 kmh 29.85 in1010.8 mb 0.09 in2.3 mm 0.00 in0.0 mm 1.40 in35.6 mm
04:30 AM 73.9°F23.3°C 71.4°F21.9°C 92% Calm Calm 2.0 mph3.2 kmh 29.85 in1010.8 mb 0.07 in1.8 mm 0.00 in0.0 mm 1.40 in35.6 mm
04:35 AM 73.9°F23.3°C 71.4°F21.9°C 92% Calm Calm 1.0 mph1.6 kmh 29.85 in1010.8 mb 0.05 in1.3 mm 0.00 in0.0 mm 1.40 in35.6 mm
04:40 AM 74.0°F23.3°C 71.5°F21.9°C 92% 4.0 mph SW6.4 kmh SW 4.0 mph6.4 kmh 29.85 in1010.8 mb 0.01 in0.3 mm 0.00 in0.0 mm 1.40 in35.6 mm
04:45 AM 74.0°F23.3°C 71.5°F21.9°C 92% 1.0 mph SW1.6 kmh SW 3.0 mph4.8 kmh 29.85 in1010.8 mb 0.00 in0.0 mm 0.00 in0.0 mm 1.40 in35.6 mm
04:50 AM 74.0°F23.3°C 71.5°F21.9°C 92% Calm Calm 1.0 mph1.6 kmh 29.85 in1010.8 mb 0.01 in0.3 mm 0.12 in3.0 mm 1.41 in35.8 mm
04:55 AM 74.0°F23.3°C 71.5°F21.9°C 92% 1.0 mph SW1.6 kmh SW 4.0 mph6.4 kmh 29.85 in1010.8 mb 0.01 in0.3 mm 0.00 in0.0 mm 1.41 in35.8 mm
05:00 AM 74.0°F23.3°C 71.5°F21.9°C 92% 1.0 mph SW1.6 kmh SW 4.0 mph6.4 kmh 29.85 in1010.8 mb 0.01 in0.3 mm 0.00 in0.0 mm 1.41 in35.8 mm
05:05 AM 74.0°F23.3°C 71.5°F21.9°C 92% 2.0 mph SW3.2 kmh SW 2.0 mph3.2 kmh 29.85 in1010.8 mb 0.01 in0.3 mm 0.00 in0.0 mm 1.41 in35.8 mm
05:09 AM 74.0°F23.3°C 71.5°F21.9°C 92% Calm Calm 2.0 mph3.2 kmh 29.85 in1010.8 mb 0.02 in0.5 mm 0.15 in3.8 mm 1.42 in36.1 mm
05:15 AM 74.0°F23.3°C 71.5°F21.9°C 92% Calm Calm 4.0 mph6.4 kmh 29.85 in1010.8 mb 0.02 in0.5 mm 0.00 in0.0 mm 1.42 in36.1 mm
05:20 AM 74.0°F23.3°C 71.5°F21.9°C 92% 2.0 mph SW3.2 kmh SW 2.0 mph3.2 kmh 29.85 in1010.8 mb 0.02 in0.5 mm 0.00 in0.0 mm 1.42 in36.1 mm
05:25 AM 74.1°F23.4°C 71.6°F22.0°C 92% 1.0 mph SW1.6 kmh SW 5.0 mph8.0 kmh 29.85 in1010.8 mb 0.02 in0.5 mm 0.00 in0.0 mm 1.42 in36.1 mm
05:30 AM 74.1°F23.4°C 71.6°F22.0°C 92% Calm Calm 3.0 mph4.8 kmh 29.85 in1010.8 mb 0.02 in0.5 mm 0.00 in0.0 mm 1.42 in36.1 mm
05:35 AM 74.1°F23.4°C 71.6°F22.0°C 92% 1.0 mph SW1.6 kmh SW 2.0 mph3.2 kmh 29.86 in1011.2 mb 0.02 in0.5 mm 0.00 in0.0 mm 1.42 in36.1 mm
05:40 AM 74.1°F23.4°C 71.6°F22.0°C 92% Calm Calm 2.0 mph3.2 kmh 29.86 in1011.2 mb 0.02 in0.5 mm 0.00 in0.0 mm 1.42 in36.1 mm
05:44 AM 74.1°F23.4°C 71.6°F22.0°C 92% Calm Calm 1.0 mph1.6 kmh 29.86 in1011.2 mb 0.02 in0.5 mm 0.00 in0.0 mm 1.42 in36.1 mm
05:49 AM 74.1°F23.4°C 71.6°F22.0°C 92% Calm Calm 2.0 mph3.2 kmh 29.86 in1011.2 mb 0.01 in0.3 mm 0.00 in0.0 mm 1.42 in36.1 mm
05:55 AM 74.2°F23.4°C 71.7°F22.1°C 92% 1.0 mph SW1.6 kmh SW 3.0 mph4.8 kmh 29.86 in1011.2 mb 0.01 in0.3 mm 0.00 in0.0 mm 1.42 in36.1 mm
06:00 AM 74.2°F23.4°C 71.7°F22.1°C 92% 2.0 mph SW3.2 kmh SW 3.0 mph4.8 kmh 29.86 in1011.2 mb 0.01 in0.3 mm 0.00 in0.0 mm 1.42 in36.1 mm
06:05 AM 74.2°F23.4°C 71.7°F22.1°C 92% Calm Calm 3.0 mph4.8 kmh 29.86 in1011.2 mb 0.01 in0.3 mm 0.00 in0.0 mm 1.42 in36.1 mm
06:10 AM 74.2°F23.4°C 71.7°F22.1°C 92% 2.0 mph SW3.2 kmh SW 2.0 mph3.2 kmh 29.86 in1011.2 mb 0.01 in0.3 mm 0.00 in0.0 mm 1.42 in36.1 mm
06:14 AM 74.2°F23.4°C 71.7°F22.1°C 92% Calm Calm 2.0 mph3.2 kmh 29.86 in1011.2 mb 0.00 in0.0 mm 0.00 in0.0 mm 1.42 in36.1 mm
06:20 AM 74.2°F23.4°C 71.7°F22.1°C 92% 2.0 mph SW3.2 kmh SW 2.0 mph3.2 kmh 29.86 in1011.2 mb 0.00 in0.0 mm 0.00 in0.0 mm 1.42 in36.1 mm
06:25 AM 74.2°F23.4°C 71.7°F22.1°C 92% Calm Calm -- 29.86 in1011.2 mb 0.00 in0.0 mm 0.00 in0.0 mm 1.42 in36.1 mm
06:30 AM 74.3°F23.5°C 71.8°F22.1°C 92% Calm Calm 1.0 mph1.6 kmh 29.86 in1011.2 mb 0.00 in0.0 mm 0.00 in0.0 mm 1.42 in36.1 mm
06:35 AM 74.3°F23.5°C 71.8°F22.1°C 92% Calm Calm 4.0 mph6.4 kmh 29.87 in1011.5 mb 0.00 in0.0 mm 0.00 in0.0 mm 1.42 in36.1 mm
06:40 AM 74.3°F23.5°C 71.8°F22.1°C 92% Calm Calm 2.0 mph3.2 kmh 29.87 in1011.5 mb 0.00 in0.0 mm 0.00 in0.0 mm 1.42 in36.1 mm
06:44 AM 74.3°F23.5°C 71.8°F22.1°C 92% Calm Calm -- 29.87 in1011.5 mb 0.00 in0.0 mm 0.00 in0.0 mm 1.42 in36.1 mm
06:50 AM 74.3°F23.5°C 71.8°F22.1°C 92% Calm Calm 1.0 mph1.6 kmh 29.86 in1011.2 mb 0.01 in0.3 mm 0.10 in2.5 mm 1.43 in36.3 mm
06:55 AM 74.4°F23.6°C 71.9°F22.2°C 92% Calm Calm 1.0 mph1.6 kmh 29.87 in1011.5 mb 0.01 in0.3 mm 0.00 in0.0 mm 1.43 in36.3 mm
07:00 AM 74.4°F23.6°C 71.9°F22.2°C 92% 2.0 mph SW3.2 kmh SW 2.0 mph3.2 kmh 29.87 in1011.5 mb 0.01 in0.3 mm 0.00 in0.0 mm 1.43 in36.3 mm
07:04 AM 74.4°F23.6°C 71.9°F22.2°C 92% Calm Calm -- 29.87 in1011.5 mb 0.01 in0.3 mm 0.00 in0.0 mm 1.43 in36.3 mm
07:10 AM 74.4°F23.6°C 71.9°F22.2°C 92% Calm Calm -- 29.87 in1011.5 mb 0.01 in0.3 mm 0.00 in0.0 mm 1.43 in36.3 mm
07:15 AM 74.4°F23.6°C 71.9°F22.2°C 92% Calm Calm -- 29.87 in1011.5 mb 0.01 in0.3 mm 0.00 in0.0 mm 1.43 in36.3 mm
07:20 AM 74.4°F23.6°C 71.9°F22.2°C 92% Calm Calm -- 29.87 in1011.5 mb 0.01 in0.3 mm 0.00 in0.0 mm 1.43 in36.3 mm
07:24 AM 74.5°F23.6°C 72.0°F22.2°C 92% Calm Calm -- 29.87 in1011.5 mb 0.01 in0.3 mm 0.00 in0.0 mm 1.43 in36.3 mm
07:29 AM 74.5°F23.6°C 72.0°F22.2°C 92% Calm Calm -- 29.88 in1011.9 mb 0.03 in0.8 mm 0.24 in6.1 mm 1.45 in36.8 mm
07:35 AM 74.6°F23.7°C 72.1°F22.3°C 92% Calm Calm 2.0 mph3.2 kmh 29.88 in1011.9 mb 0.08 in2.0 mm 0.50 in12.7 mm 1.50 in38.1 mm
07:40 AM 74.6°F23.7°C 72.1°F22.3°C 92% Calm Calm 1.0 mph1.6 kmh 29.88 in1011.9 mb 0.14 in3.6 mm 0.72 in18.3 mm 1.56 in39.6 mm
07:45 AM 74.6°F23.7°C 72.1°F22.3°C 92% 1.0 mph SW1.6 kmh SW 1.0 mph1.6 kmh 29.88 in1011.9 mb 0.15 in3.8 mm 0.12 in3.0 mm 1.57 in39.9 mm
07:50 AM 74.6°F23.7°C 72.1°F22.3°C 92% Calm Calm -- 29.88 in1011.9 mb 0.14 in3.6 mm 0.00 in0.0 mm 1.57 in39.9 mm
07:55 AM 74.6°F23.7°C 72.1°F22.3°C 92% Calm Calm -- 29.88 in1011.9 mb 0.14 in3.6 mm 0.00 in0.0 mm 1.57 in39.9 mm
08:00 AM 74.7°F23.7°C 72.2°F22.3°C 92% Calm Calm -- 29.88 in1011.9 mb 0.14 in3.6 mm 0.00 in0.0 mm 1.57 in39.9 mm
08:05 AM 74.8°F23.8°C 72.3°F22.4°C 92% Calm Calm -- 29.89 in1012.2 mb 0.14 in3.6 mm 0.00 in0.0 mm 1.57 in39.9 mm
08:10 AM 74.8°F23.8°C 72.3°F22.4°C 92% Calm Calm -- 29.89 in1012.2 mb 0.14 in3.6 mm 0.00 in0.0 mm 1.57 in39.9 mm
08:15 AM 74.9°F23.8°C 72.4°F22.4°C 92% Calm Calm -- 29.89 in1012.2 mb 0.14 in3.6 mm 0.00 in0.0 mm 1.57 in39.9 mm
08:20 AM 75.0°F23.9°C 72.5°F22.5°C 92% Calm Calm -- 29.89 in1012.2 mb 0.14 in3.6 mm 0.00 in0.0 mm 1.57 in39.9 mm
08:24 AM 75.1°F23.9°C 72.6°F22.6°C 92% Calm Calm 1.0 mph1.6 kmh 29.89 in1012.2 mb 0.14 in3.6 mm 0.00 in0.0 mm 1.57 in39.9 mm
08:30 AM 75.1°F23.9°C 72.6°F22.6°C 92% 2.0 mph SW3.2 kmh SW 2.0 mph3.2 kmh 29.89 in1012.2 mb 0.14 in3.6 mm 0.00 in0.0 mm 1.57 in39.9 mm
08:35 AM 75.2°F24.0°C 72.7°F22.6°C 92% Calm Calm -- 29.89 in1012.2 mb 0.10 in2.5 mm 0.00 in0.0 mm 1.57 in39.9 mm
08:40 AM 75.3°F24.1°C 72.8°F22.7°C 92% Calm Calm -- 29.90 in1012.5 mb 0.02 in0.5 mm 0.00 in0.0 mm 1.57 in39.9 mm
08:45 AM 75.3°F24.1°C 72.8°F22.7°C 92% Calm Calm -- 29.89 in1012.2 mb 0.01 in0.3 mm 0.00 in0.0 mm 1.57 in39.9 mm
08:50 AM 75.3°F24.1°C 72.8°F22.7°C 92% Calm Calm 3.0 mph4.8 kmh 29.90 in1012.5 mb 0.00 in0.0 mm 0.00 in0.0 mm 1.57 in39.9 mm
08:55 AM 75.3°F24.1°C 72.8°F22.7°C 92% Calm Calm 2.0 mph3.2 kmh 29.90 in1012.5 mb 0.00 in0.0 mm 0.00 in0.0 mm 1.57 in39.9 mm
09:00 AM 75.4°F24.1°C 72.9°F22.7°C 92% 2.0 mph SW3.2 kmh SW 2.0 mph3.2 kmh 29.90 in1012.5 mb 0.00 in0.0 mm 0.00 in0.0 mm 1.57 in39.9 mm
09:05 AM 75.5°F24.2°C 73.0°F22.8°C 92% Calm Calm -- 29.90 in1012.5 mb 0.00 in0.0 mm 0.00 in0.0 mm 1.57 in39.9 mm
09:10 AM 75.7°F24.3°C 73.2°F22.9°C 92% Calm Calm 1.0 mph1.6 kmh 29.90 in1012.5 mb 0.00 in0.0 mm 0.00 in0.0 mm 1.57 in39.9 mm
09:15 AM 75.7°F24.3°C 73.2°F22.9°C 92% Calm Calm 2.0 mph3.2 kmh 29.90 in1012.5 mb 0.00 in0.0 mm 0.00 in0.0 mm 1.57 in39.9 mm
09:20 AM 75.8°F24.3°C 73.3°F22.9°C 92% Calm Calm 1.0 mph1.6 kmh 29.90 in1012.5 mb 0.00 in0.0 mm 0.00 in0.0 mm 1.57 in39.9 mm
09:25 AM 75.8°F24.3°C 73.3°F22.9°C 92% Calm Calm 2.0 mph3.2 kmh 29.90 in1012.5 mb 0.00 in0.0 mm 0.00 in0.0 mm 1.57 in39.9 mm
09:30 AM 75.8°F24.3°C 73.3°F22.9°C 92% Calm Calm -- 29.91 in1012.9 mb 0.00 in0.0 mm 0.00 in0.0 mm 1.57 in39.9 mm
09:35 AM 75.7°F24.3°C 73.2°F22.9°C 92% Calm Calm 4.0 mph6.4 kmh 29.91 in1012.9 mb 0.00 in0.0 mm 0.00 in0.0 mm 1.57 in39.9 mm
09:40 AM 75.8°F24.3°C 73.3°F22.9°C 92% Calm Calm -- 29.91 in1012.9 mb 0.00 in0.0 mm 0.00 in0.0 mm 1.57 in39.9 mm
09:45 AM 75.9°F24.4°C 73.4°F23.0°C 92% Calm Calm 1.0 mph1.6 kmh 29.91 in1012.9 mb 0.00 in0.0 mm 0.00 in0.0 mm 1.57 in39.9 mm
09:50 AM 75.9°F24.4°C 73.4°F23.0°C 92% Calm Calm 1.0 mph1.6 kmh 29.91 in1012.9 mb 0.00 in0.0 mm 0.00 in0.0 mm 1.57 in39.9 mm
09:55 AM 75.8°F24.3°C 73.3°F22.9°C 92% Calm Calm -- 29.91 in1012.9 mb 0.00 in0.0 mm 0.00 in0.0 mm 1.57 in39.9 mm
10:00 AM 75.8°F24.3°C 73.3°F22.9°C 92% Calm Calm 3.0 mph4.8 kmh 29.91 in1012.9 mb 0.00 in0.0 mm 0.00 in0.0 mm 1.57 in39.9 mm
10:05 AM 76.1°F24.5°C 73.6°F23.1°C 92% Calm Calm -- 29.91 in1012.9 mb 0.00 in0.0 mm 0.00 in0.0 mm 1.57 in39.9 mm
10:10 AM 76.3°F24.6°C 73.8°F23.2°C 92% Calm Calm 6.0 mph9.7 kmh 29.92 in1013.2 mb 0.00 in0.0 mm 0.00 in0.0 mm 1.57 in39.9 mm
10:14 AM 76.3°F24.6°C 73.8°F23.2°C 92% Calm Calm 2.0 mph3.2 kmh 29.92 in1013.2 mb 0.00 in0.0 mm 0.00 in0.0 mm 1.57 in39.9 mm
10:20 AM 76.0°F24.4°C 73.5°F23.1°C 92% Calm Calm 1.0 mph1.6 kmh 29.92 in1013.2 mb 0.00 in0.0 mm 0.00 in0.0 mm 1.57 in39.9 mm
10:25 AM 76.0°F24.4°C 73.5°F23.1°C 92% Calm Calm -- 29.92 in1013.2 mb 0.00 in0.0 mm 0.00 in0.0 mm 1.57 in39.9 mm
10:30 AM 75.9°F24.4°C 73.4°F23.0°C 92% Calm Calm 2.0 mph3.2 kmh 29.92 in1013.2 mb 0.00 in0.0 mm 0.00 in0.0 mm 1.57 in39.9 mm
10:35 AM 76.4°F24.7°C 73.9°F23.3°C 92% Calm Calm -- 29.92 in1013.2 mb 0.00 in0.0 mm 0.00 in0.0 mm 1.57 in39.9 mm
10:40 AM 76.9°F24.9°C 74.4°F23.6°C 92% 1.0 mph SW1.6 kmh SW 3.0 mph4.8 kmh 29.92 in1013.2 mb 0.00 in0.0 mm 0.00 in0.0 mm 1.57 in39.9 mm
10:45 AM 77.0°F25.0°C 74.5°F23.6°C 92% Calm Calm -- 29.92 in1013.2 mb 0.00 in0.0 mm 0.00 in0.0 mm 1.57 in39.9 mm
10:50 AM 77.1°F25.1°C 74.6°F23.7°C 92% Calm Calm 1.0 mph1.6 kmh 29.92 in1013.2 mb 0.00 in0.0 mm 0.00 in0.0 mm 1.57 in39.9 mm
10:55 AM 76.7°F24.8°C 74.2°F23.4°C 92% Calm Calm 6.0 mph9.7 kmh 29.92 in1013.2 mb 0.00 in0.0 mm 0.00 in0.0 mm 1.57 in39.9 mm
11:00 AM 77.0°F25.0°C 74.5°F23.6°C 92% Calm Calm 1.0 mph1.6 kmh 29.92 in1013.2 mb 0.00 in0.0 mm 0.00 in0.0 mm 1.57 in39.9 mm
11:04 AM 77.1°F25.1°C 74.6°F23.7°C 92% Calm Calm -- 29.92 in1013.2 mb 0.00 in0.0 mm 0.00 in0.0 mm 1.57 in39.9 mm
11:09 AM 77.6°F25.3°C 75.1°F23.9°C 92% Calm Calm 1.0 mph1.6 kmh 29.92 in1013.2 mb 0.00 in0.0 mm 0.00 in0.0 mm 1.57 in39.9 mm
11:15 AM 77.9°F25.5°C 75.4°F24.1°C 92% Calm Calm 3.0 mph4.8 kmh 29.93 in1013.5 mb 0.00 in0.0 mm 0.00 in0.0 mm 1.57 in39.9 mm
11:20 AM 78.3°F25.7°C 75.8°F24.3°C 92% Calm Calm 4.0 mph6.4 kmh 29.92 in1013.2 mb 0.00 in0.0 mm 0.00 in0.0 mm 1.57 in39.9 mm
11:25 AM 79.2°F26.2°C 76.0°F24.4°C 90% Calm Calm -- 29.93 in1013.5 mb 0.00 in0.0 mm 0.00 in0.0 mm 1.57 in39.9 mm
11:30 AM 79.3°F26.3°C 75.4°F24.1°C 88% 1.0 mph SW1.6 kmh SW 4.0 mph6.4 kmh 29.93 in1013.5 mb 0.00 in0.0 mm 0.00 in0.0 mm 1.57 in39.9 mm
11:35 AM 79.8°F26.6°C 75.6°F24.2°C 87% Calm Calm -- 29.93 in1013.5 mb 0.00 in0.0 mm 0.00 in0.0 mm 1.57 in39.9 mm
11:40 AM 80.0°F26.7°C 75.1°F23.9°C 85% Calm Calm 4.0 mph6.4 kmh 29.93 in1013.5 mb 0.00 in0.0 mm 0.00 in0.0 mm 1.57 in39.9 mm
11:45 AM 80.3°F26.8°C 75.0°F23.9°C 84% Calm Calm 1.0 mph1.6 kmh 29.93 in1013.5 mb 0.00 in0.0 mm 0.00 in0.0 mm 1.57 in39.9 mm
11:50 AM 80.5°F26.9°C 74.9°F23.8°C 83% Calm Calm 4.0 mph6.4 kmh 29.93 in1013.5 mb 0.00 in0.0 mm 0.00 in0.0 mm 1.57 in39.9 mm
11:55 AM 80.7°F27.1°C 75.4°F24.1°C 84% Calm Calm 1.0 mph1.6 kmh 29.93 in1013.5 mb 0.00 in0.0 mm 0.00 in0.0 mm 1.57 in39.9 mm
12:00 PM 81.1°F27.3°C 75.5°F24.2°C 83% Calm Calm -- 29.93 in1013.5 mb 0.00 in0.0 mm 0.00 in0.0 mm 1.57 in39.9 mm
12:04 PM 81.4°F27.4°C 75.0°F23.9°C 81% 4.0 mph SW6.4 kmh SW 6.0 mph9.7 kmh 29.93 in1013.5 mb 0.00 in0.0 mm 0.00 in0.0 mm 1.57 in39.9 mm
12:10 PM 80.9°F27.2°C 74.9°F23.8°C 82% 3.0 mph SW4.8 kmh SW 7.0 mph11.3 kmh 29.93 in1013.5 mb 0.00 in0.0 mm 0.00 in0.0 mm 1.57 in39.9 mm
12:15 PM 80.8°F27.1°C 75.5°F24.2°C 84% Calm Calm -- 29.93 in1013.5 mb 0.00 in0.0 mm 0.00 in0.0 mm 1.57 in39.9 mm
12:20 PM 80.9°F27.2°C 75.3°F24.1°C 83% 4.0 mph SW6.4 kmh SW 9.0 mph14.5 kmh 29.93 in1013.5 mb 0.00 in0.0 mm 0.00 in0.0 mm 1.57 in39.9 mm
12:24 PM 81.0°F27.2°C 75.0°F23.9°C 82% 2.0 mph SW3.2 kmh SW 5.0 mph8.0 kmh 29.93 in1013.5 mb 0.00 in0.0 mm 0.00 in0.0 mm 1.57 in39.9 mm
12:30 PM 81.2°F27.3°C 75.2°F24.0°C 82% Calm Calm 2.0 mph3.2 kmh 29.93 in1013.5 mb 0.00 in0.0 mm 0.00 in0.0 mm 1.57 in39.9 mm
12:35 PM 82.1°F27.8°C 75.3°F24.1°C 80% Calm Calm 1.0 mph1.6 kmh 29.93 in1013.5 mb 0.00 in0.0 mm 0.00 in0.0 mm 1.57 in39.9 mm
12:40 PM 83.0°F28.3°C 75.1°F23.9°C 77% 3.0 mph WSW4.8 kmh WSW 5.0 mph8.0 kmh 29.92 in1013.2 mb 0.00 in0.0 mm 0.00 in0.0 mm 1.57 in39.9 mm
12:45 PM 82.7°F28.2°C 74.8°F23.8°C 77% 1.0 mph SW1.6 kmh SW 7.0 mph11.3 kmh 29.93 in1013.5 mb 0.00 in0.0 mm 0.00 in0.0 mm 1.57 in39.9 mm
12:49 PM 82.9°F28.3°C 76.1°F24.5°C 80% 3.0 mph WSW4.8 kmh WSW 6.0 mph9.7 kmh 29.93 in1013.5 mb 0.00 in0.0 mm 0.00 in0.0 mm 1.57 in39.9 mm
12:55 PM 83.0°F28.3°C 75.1°F23.9°C 77% 3.0 mph SW4.8 kmh SW 7.0 mph11.3 kmh 29.92 in1013.2 mb 0.00 in0.0 mm 0.00 in0.0 mm 1.57 in39.9 mm
01:00 PM 83.0°F28.3°C 75.8°F24.3°C 79% 1.0 mph SW1.6 kmh SW 4.0 mph6.4 kmh 29.92 in1013.2 mb 0.00 in0.0 mm 0.00 in0.0 mm 1.57 in39.9 mm
01:05 PM 83.4°F28.6°C 75.1°F23.9°C 76% 6.0 mph SW9.7 kmh SW 7.0 mph11.3 kmh 29.92 in1013.2 mb 0.00 in0.0 mm 0.00 in0.0 mm 1.57 in39.9 mm
01:10 PM 83.4°F28.6°C 75.4°F24.1°C 77% 1.0 mph SW1.6 kmh SW 3.0 mph4.8 kmh 29.92 in1013.2 mb 0.00 in0.0 mm 0.00 in0.0 mm 1.57 in39.9 mm
01:15 PM 84.1°F28.9°C 75.7°F24.3°C 76% 1.0 mph SW1.6 kmh SW 6.0 mph9.7 kmh 29.92 in1013.2 mb 0.00 in0.0 mm 0.00 in0.0 mm 1.57 in39.9 mm
01:20 PM 84.0°F28.9°C 75.2°F24.0°C 75% 1.0 mph SW1.6 kmh SW 5.0 mph8.0 kmh 29.92 in1013.2 mb 0.00 in0.0 mm 0.00 in0.0 mm 1.57 in39.9 mm
01:25 PM 84.1°F28.9°C 76.1°F24.5°C 77% Calm Calm -- 29.92 in1013.2 mb 0.00 in0.0 mm 0.00 in0.0 mm 1.57 in39.9 mm
01:30 PM 84.4°F29.1°C 75.6°F24.2°C 75% 6.0 mph SW9.7 kmh SW 6.0 mph9.7 kmh 29.92 in1013.2 mb 0.00 in0.0 mm 0.00 in0.0 mm 1.57 in39.9 mm
01:35 PM 84.2°F29.0°C 75.4°F24.1°C 75% Calm Calm 7.0 mph11.3 kmh 29.92 in1013.2 mb 0.00 in0.0 mm 0.00 in0.0 mm 1.57 in39.9 mm
01:39 PM 84.8°F29.3°C 76.0°F24.4°C 75% Calm Calm 7.0 mph11.3 kmh 29.93 in1013.5 mb 0.00 in0.0 mm 0.00 in0.0 mm 1.57 in39.9 mm
01:45 PM 85.4°F29.7°C 75.4°F24.1°C 72% 2.0 mph SW3.2 kmh SW 5.0 mph8.0 kmh 29.93 in1013.5 mb 0.00 in0.0 mm 0.00 in0.0 mm 1.57 in39.9 mm
01:50 PM 84.8°F29.3°C 74.4°F23.6°C 71% Calm Calm 7.0 mph11.3 kmh 29.93 in1013.5 mb 0.00 in0.0 mm 0.00 in0.0 mm 1.57 in39.9 mm
01:55 PM 84.6°F29.2°C 74.6°F23.7°C 72% 4.0 mph SW6.4 kmh SW 5.0 mph8.0 kmh 29.93 in1013.5 mb 0.00 in0.0 mm 0.00 in0.0 mm 1.57 in39.9 mm
02:00 PM 84.7°F29.3°C 74.7°F23.7°C 72% 3.0 mph WSW4.8 kmh WSW 5.0 mph8.0 kmh 29.92 in1013.2 mb 0.00 in0.0 mm 0.00 in0.0 mm 1.57 in39.9 mm
02:05 PM 85.2°F29.6°C 75.6°F24.2°C 73% 3.0 mph W4.8 kmh W 6.0 mph9.7 kmh 29.92 in1013.2 mb 0.00 in0.0 mm 0.00 in0.0 mm 1.57 in39.9 mm
02:10 PM 85.6°F29.8°C 75.1°F23.9°C 71% Calm Calm 6.0 mph9.7 kmh 29.92 in1013.2 mb 0.00 in0.0 mm 0.00 in0.0 mm 1.57 in39.9 mm
02:15 PM 85.7°F29.8°C 75.2°F24.0°C 71% 1.0 mph NNE1.6 kmh NNE 6.0 mph9.7 kmh 29.92 in1013.2 mb 0.00 in0.0 mm 0.00 in0.0 mm 1.57 in39.9 mm
02:20 PM 86.1°F30.1°C 75.6°F24.2°C 71% Calm Calm 3.0 mph4.8 kmh 29.92 in1013.2 mb 0.00 in0.0 mm 0.00 in0.0 mm 1.57 in39.9 mm
02:25 PM 85.8°F29.9°C 75.3°F24.1°C 71% 2.0 mph WSW3.2 kmh WSW 6.0 mph9.7 kmh 29.92 in1013.2 mb 0.00 in0.0 mm 0.00 in0.0 mm 1.57 in39.9 mm
02:30 PM 85.6°F29.8°C 75.5°F24.2°C 72% Calm Calm 3.0 mph4.8 kmh 29.92 in1013.2 mb 0.00 in0.0 mm 0.00 in0.0 mm 1.57 in39.9 mm
02:35 PM 85.7°F29.8°C 75.6°F24.2°C 72% Calm Calm 2.0 mph3.2 kmh 29.92 in1013.2 mb 0.00 in0.0 mm 0.00 in0.0 mm 1.57 in39.9 mm
02:40 PM 85.5°F29.7°C 74.6°F23.7°C 70% 1.0 mph SW1.6 kmh SW 4.0 mph6.4 kmh 29.92 in1013.2 mb 0.00 in0.0 mm 0.00 in0.0 mm 1.57 in39.9 mm
02:44 PM 85.8°F29.9°C 76.2°F24.6°C 73% Calm Calm 3.0 mph4.8 kmh 29.91 in1012.9 mb 0.00 in0.0 mm 0.00 in0.0 mm 1.57 in39.9 mm
02:49 PM 86.4°F30.2°C 75.9°F24.4°C 71% Calm Calm 4.0 mph6.4 kmh 29.91 in1012.9 mb 0.00 in0.0 mm 0.00 in0.0 mm 1.57 in39.9 mm
02:55 PM 87.0°F30.6°C 75.6°F24.2°C 69% 3.0 mph SW4.8 kmh SW 6.0 mph9.7 kmh 29.91 in1012.9 mb 0.00 in0.0 mm 0.00 in0.0 mm 1.57 in39.9 mm
03:00 PM 87.0°F30.6°C 75.2°F24.0°C 68% 4.0 mph SW6.4 kmh SW 8.0 mph12.9 kmh 29.90 in1012.5 mb 0.00 in0.0 mm 0.00 in0.0 mm 1.57 in39.9 mm
03:05 PM 87.1°F30.6°C 76.1°F24.5°C 70% Calm Calm 3.0 mph4.8 kmh 29.91 in1012.9 mb 0.00 in0.0 mm 0.00 in0.0 mm 1.57 in39.9 mm
03:09 PM 87.1°F30.6°C 75.3°F24.1°C 68% 3.0 mph SW4.8 kmh SW 8.0 mph12.9 kmh 29.90 in1012.5 mb 0.00 in0.0 mm 0.00 in0.0 mm 1.57 in39.9 mm
03:15 PM 87.2°F30.7°C 75.8°F24.3°C 69% Calm Calm 1.0 mph1.6 kmh 29.90 in1012.5 mb 0.00 in0.0 mm 0.00 in0.0 mm 1.57 in39.9 mm
03:20 PM 87.5°F30.8°C 75.2°F24.0°C 67% 3.0 mph WSW4.8 kmh WSW 5.0 mph8.0 kmh 29.90 in1012.5 mb 0.00 in0.0 mm 0.00 in0.0 mm 1.57 in39.9 mm
03:25 PM 87.5°F30.8°C 75.2°F24.0°C 67% 2.0 mph SW3.2 kmh SW 5.0 mph8.0 kmh 29.90 in1012.5 mb 0.00 in0.0 mm 0.00 in0.0 mm 1.57 in39.9 mm
03:30 PM 87.4°F30.8°C 75.6°F24.2°C 68% 4.0 mph SW6.4 kmh SW 9.0 mph14.5 kmh 29.90 in1012.5 mb 0.00 in0.0 mm 0.00 in0.0 mm 1.57 in39.9 mm
03:35 PM 87.3°F30.7°C 75.5°F24.2°C 68% 2.0 mph SW3.2 kmh SW 6.0 mph9.7 kmh 29.90 in1012.5 mb 0.00 in0.0 mm 0.00 in0.0 mm 1.57 in39.9 mm
03:40 PM 87.7°F30.9°C 76.7°F24.8°C 70% Calm Calm 4.0 mph6.4 kmh 29.90 in1012.5 mb 0.00 in0.0 mm 0.00 in0.0 mm 1.57 in39.9 mm
03:44 PM 87.8°F31.0°C 75.0°F23.9°C 66% 2.0 mph SW3.2 kmh SW 11.0 mph17.7 kmh 29.90 in1012.5 mb 0.00 in0.0 mm 0.00 in0.0 mm 1.57 in39.9 mm
03:50 PM 87.8°F31.0°C 75.0°F23.9°C 66% 3.0 mph SW4.8 kmh SW 6.0 mph9.7 kmh 29.90 in1012.5 mb 0.00 in0.0 mm 0.00 in0.0 mm 1.57 in39.9 mm
03:55 PM 88.0°F31.1°C 75.2°F24.0°C 66% 5.0 mph WSW8.0 kmh WSW 8.0 mph12.9 kmh 29.90 in1012.5 mb 0.00 in0.0 mm 0.00 in0.0 mm 1.57 in39.9 mm
04:00 PM 87.8°F31.0°C 75.5°F24.2°C 67% 3.0 mph SW4.8 kmh SW 7.0 mph11.3 kmh 29.89 in1012.2 mb 0.00 in0.0 mm 0.00 in0.0 mm 1.57 in39.9 mm
04:05 PM 88.3°F31.3°C 76.0°F24.4°C 67% Calm Calm 6.0 mph9.7 kmh 29.89 in1012.2 mb 0.00 in0.0 mm 0.00 in0.0 mm 1.57 in39.9 mm
04:10 PM 88.8°F31.6°C 76.4°F24.7°C 67% 1.0 mph W1.6 kmh W 6.0 mph9.7 kmh 29.89 in1012.2 mb 0.00 in0.0 mm 0.00 in0.0 mm 1.57 in39.9 mm
04:15 PM 88.6°F31.4°C 75.3°F24.1°C 65% Calm Calm 1.0 mph1.6 kmh 29.89 in1012.2 mb 0.00 in0.0 mm 0.00 in0.0 mm 1.57 in39.9 mm
04:20 PM 88.4°F31.3°C 75.1°F23.9°C 65% 1.0 mph N1.6 kmh N 3.0 mph4.8 kmh 29.88 in1011.9 mb 0.00 in0.0 mm 0.00 in0.0 mm 1.57 in39.9 mm
04:24 PM 88.7°F31.5°C 75.9°F24.4°C 66% 3.0 mph SW4.8 kmh SW 8.0 mph12.9 kmh 29.88 in1011.9 mb 0.00 in0.0 mm 0.00 in0.0 mm 1.57 in39.9 mm
04:29 PM 88.6°F31.4°C 75.3°F24.1°C 65% 2.0 mph SW3.2 kmh SW 10.0 mph16.1 kmh 29.88 in1011.9 mb 0.00 in0.0 mm 0.00 in0.0 mm 1.57 in39.9 mm
04:35 PM 88.2°F31.2°C 75.4°F24.1°C 66% 5.0 mph SW8.0 kmh SW 5.0 mph8.0 kmh 29.88 in1011.9 mb 0.00 in0.0 mm 0.00 in0.0 mm 1.57 in39.9 mm
04:40 PM 87.8°F31.0°C 75.5°F24.2°C 67% Calm Calm 3.0 mph4.8 kmh 29.88 in1011.9 mb 0.00 in0.0 mm 0.00 in0.0 mm 1.57 in39.9 mm
04:44 PM 88.1°F31.2°C 76.2°F24.6°C 68% 4.0 mph SW6.4 kmh SW 5.0 mph8.0 kmh 29.88 in1011.9 mb 0.00 in0.0 mm 0.00 in0.0 mm 1.57 in39.9 mm
04:50 PM 88.1°F31.2°C 75.8°F24.3°C 67% 2.0 mph SW3.2 kmh SW 5.0 mph8.0 kmh 29.88 in1011.9 mb 0.00 in0.0 mm 0.00 in0.0 mm 1.57 in39.9 mm
04:55 PM 87.8°F31.0°C 75.5°F24.2°C 67% 1.0 mph SW1.6 kmh SW 5.0 mph8.0 kmh 29.88 in1011.9 mb 0.00 in0.0 mm 0.00 in0.0 mm 1.57 in39.9 mm
05:00 PM 87.6°F30.9°C 75.3°F24.1°C 67% Calm Calm 2.0 mph3.2 kmh 29.88 in1011.9 mb 0.00 in0.0 mm 0.00 in0.0 mm 1.57 in39.9 mm
05:05 PM 87.5°F30.8°C 74.8°F23.8°C 66% Calm Calm 2.0 mph3.2 kmh 29.88 in1011.9 mb 0.00 in0.0 mm 0.00 in0.0 mm 1.57 in39.9 mm
05:10 PM 87.5°F30.8°C 75.2°F24.0°C 67% Calm Calm 3.0 mph4.8 kmh 29.89 in1012.2 mb 0.00 in0.0 mm 0.00 in0.0 mm 1.57 in39.9 mm
05:15 PM 87.4°F30.8°C 75.6°F24.2°C 68% Calm Calm 2.0 mph3.2 kmh 29.88 in1011.9 mb 0.00 in0.0 mm 0.00 in0.0 mm 1.57 in39.9 mm
05:20 PM 87.4°F30.8°C 75.1°F23.9°C 67% 1.0 mph SW1.6 kmh SW 5.0 mph8.0 kmh 29.89 in1012.2 mb 0.00 in0.0 mm 0.00 in0.0 mm 1.57 in39.9 mm
05:25 PM 87.4°F30.8°C 75.1°F23.9°C 67% Calm Calm 3.0 mph4.8 kmh 29.88 in1011.9 mb 0.00 in0.0 mm 0.00 in0.0 mm 1.57 in39.9 mm
05:30 PM 87.6°F30.9°C 74.8°F23.8°C 66% 3.0 mph SW4.8 kmh SW 8.0 mph12.9 kmh 29.88 in1011.9 mb 0.00 in0.0 mm 0.00 in0.0 mm 1.57 in39.9 mm
05:34 PM 87.8°F31.0°C 74.1°F23.4°C 64% 2.0 mph WSW3.2 kmh WSW 6.0 mph9.7 kmh 29.89 in1012.2 mb 0.00 in0.0 mm 0.00 in0.0 mm 1.57 in39.9 mm
05:40 PM 87.9°F31.1°C 75.6°F24.2°C 67% Calm Calm 1.0 mph1.6 kmh 29.88 in1011.9 mb 0.00 in0.0 mm 0.00 in0.0 mm 1.57 in39.9 mm
05:44 PM 87.9°F31.1°C 75.1°F23.9°C 66% 3.0 mph SW4.8 kmh SW 3.0 mph4.8 kmh 29.88 in1011.9 mb 0.00 in0.0 mm 0.00 in0.0 mm 1.57 in39.9 mm
05:50 PM 87.9°F31.1°C 74.7°F23.7°C 65% Calm Calm 4.0 mph6.4 kmh 29.88 in1011.9 mb 0.00 in0.0 mm 0.00 in0.0 mm 1.57 in39.9 mm
05:55 PM 88.0°F31.1°C 75.7°F24.3°C 67% 1.0 mph WNW1.6 kmh WNW 2.0 mph3.2 kmh 29.89 in1012.2 mb 0.00 in0.0 mm 0.00 in0.0 mm 1.57 in39.9 mm
06:00 PM 88.0°F31.1°C 74.3°F23.5°C 64% Calm Calm 7.0 mph11.3 kmh 29.89 in1012.2 mb 0.00 in0.0 mm 0.00 in0.0 mm 1.57 in39.9 mm
06:04 PM 87.9°F31.1°C 74.7°F23.7°C 65% 4.0 mph WSW6.4 kmh WSW 4.0 mph6.4 kmh 29.89 in1012.2 mb 0.00 in0.0 mm 0.00 in0.0 mm 1.57 in39.9 mm
06:10 PM 87.8°F31.0°C 75.0°F23.9°C 66% 4.0 mph SW6.4 kmh SW 5.0 mph8.0 kmh 29.88 in1011.9 mb 0.00 in0.0 mm 0.00 in0.0 mm 1.57 in39.9 mm
06:15 PM 87.6°F30.9°C 75.3°F24.1°C 67% 4.0 mph WSW6.4 kmh WSW 4.0 mph6.4 kmh 29.88 in1011.9 mb 0.00 in0.0 mm 0.00 in0.0 mm 1.57 in39.9 mm
06:20 PM 87.5°F30.8°C 75.2°F24.0°C 67% 2.0 mph SW3.2 kmh SW 9.0 mph14.5 kmh 29.88 in1011.9 mb 0.00 in0.0 mm 0.00 in0.0 mm 1.57 in39.9 mm
06:25 PM 87.5°F30.8°C 74.8°F23.8°C 66% 2.0 mph SW3.2 kmh SW 10.0 mph16.1 kmh 29.88 in1011.9 mb 0.00 in0.0 mm 0.00 in0.0 mm 1.57 in39.9 mm
06:30 PM 87.4°F30.8°C 75.1°F23.9°C 67% Calm Calm 6.0 mph9.7 kmh 29.88 in1011.9 mb 0.00 in0.0 mm 0.00 in0.0 mm 1.57 in39.9 mm
06:35 PM 87.4°F30.8°C 74.2°F23.4°C 65% Calm Calm 6.0 mph9.7 kmh 29.88 in1011.9 mb 0.00 in0.0 mm 0.00 in0.0 mm 1.57 in39.9 mm
06:39 PM 87.4°F30.8°C 74.7°F23.7°C 66% Calm Calm 8.0 mph12.9 kmh 29.87 in1011.5 mb 0.00 in0.0 mm 0.00 in0.0 mm 1.57 in39.9 mm
06:45 PM 87.3°F30.7°C 75.0°F23.9°C 67% 1.0 mph WSW1.6 kmh WSW 4.0 mph6.4 kmh 29.87 in1011.5 mb 0.00 in0.0 mm 0.00 in0.0 mm 1.57 in39.9 mm
06:50 PM 87.3°F30.7°C 75.0°F23.9°C 67% Calm Calm 4.0 mph6.4 kmh 29.88 in1011.9 mb 0.00 in0.0 mm 0.00 in0.0 mm 1.57 in39.9 mm
06:55 PM 87.2°F30.7°C 74.9°F23.8°C 67% Calm Calm 4.0 mph6.4 kmh 29.88 in1011.9 mb 0.00 in0.0 mm 0.00 in0.0 mm 1.57 in39.9 mm
07:00 PM 87.3°F30.7°C 75.0°F23.9°C 67% 1.0 mph NW1.6 kmh NW 2.0 mph3.2 kmh 29.88 in1011.9 mb 0.00 in0.0 mm 0.00 in0.0 mm 1.57 in39.9 mm
07:05 PM 87.2°F30.7°C 74.9°F23.8°C 67% Calm Calm 4.0 mph6.4 kmh 29.89 in1012.2 mb 0.00 in0.0 mm 0.00 in0.0 mm 1.57 in39.9 mm
07:09 PM 87.2°F30.7°C 74.5°F23.6°C 66% 2.0 mph SW3.2 kmh SW 8.0 mph12.9 kmh 29.89 in1012.2 mb 0.00 in0.0 mm 0.00 in0.0 mm 1.57 in39.9 mm
07:15 PM 87.2°F30.7°C 74.5°F23.6°C 66% 3.0 mph SW4.8 kmh SW 3.0 mph4.8 kmh 29.89 in1012.2 mb 0.00 in0.0 mm 0.00 in0.0 mm 1.57 in39.9 mm
07:20 PM 87.1°F30.6°C 75.3°F24.1°C 68% 2.0 mph SW3.2 kmh SW 3.0 mph4.8 kmh 29.89 in1012.2 mb 0.00 in0.0 mm 0.00 in0.0 mm 1.57 in39.9 mm
07:25 PM 87.0°F30.6°C 74.7°F23.7°C 67% 2.0 mph SW3.2 kmh SW 5.0 mph8.0 kmh 29.89 in1012.2 mb 0.00 in0.0 mm 0.00 in0.0 mm 1.57 in39.9 mm
07:30 PM 86.9°F30.5°C 74.6°F23.7°C 67% Calm Calm 1.0 mph1.6 kmh 29.89 in1012.2 mb 0.00 in0.0 mm 0.00 in0.0 mm 1.57 in39.9 mm
07:35 PM 86.9°F30.5°C 75.1°F23.9°C 68% Calm Calm 1.0 mph1.6 kmh 29.88 in1011.9 mb 0.00 in0.0 mm 0.00 in0.0 mm 1.57 in39.9 mm
07:40 PM 86.9°F30.5°C 74.6°F23.7°C 67% Calm Calm 5.0 mph8.0 kmh 29.89 in1012.2 mb 0.00 in0.0 mm 0.00 in0.0 mm 1.57 in39.9 mm
07:45 PM 86.8°F30.4°C 74.5°F23.6°C 67% Calm Calm 2.0 mph3.2 kmh 29.89 in1012.2 mb 0.00 in0.0 mm 0.00 in0.0 mm 1.57 in39.9 mm
07:49 PM 86.7°F30.4°C 74.4°F23.6°C 67% Calm Calm 4.0 mph6.4 kmh 29.89 in1012.2 mb 0.00 in0.0 mm 0.00 in0.0 mm 1.57 in39.9 mm
07:55 PM 86.5°F30.3°C 74.3°F23.5°C 67% 1.0 mph SW1.6 kmh SW 4.0 mph6.4 kmh 29.89 in1012.2 mb 0.00 in0.0 mm 0.00 in0.0 mm 1.57 in39.9 mm
08:00 PM 86.4°F30.2°C 74.2°F23.4°C 67% Calm Calm 2.0 mph3.2 kmh 29.89 in1012.2 mb 0.00 in0.0 mm 0.00 in0.0 mm 1.57 in39.9 mm
08:05 PM 86.2°F30.1°C 74.4°F23.6°C 68% Calm Calm -- 29.89 in1012.2 mb 0.00 in0.0 mm 0.00 in0.0 mm 1.57 in39.9 mm
08:10 PM 86.0°F30.0°C 74.2°F23.4°C 68% 1.0 mph SW1.6 kmh SW 1.0 mph1.6 kmh 29.89 in1012.2 mb 0.00 in0.0 mm 0.00 in0.0 mm 1.57 in39.9 mm
08:15 PM 85.9°F29.9°C 74.1°F23.4°C 68% Calm Calm 4.0 mph6.4 kmh 29.89 in1012.2 mb 0.00 in0.0 mm 0.00 in0.0 mm 1.57 in39.9 mm
08:20 PM 85.8°F29.9°C 74.5°F23.6°C 69% Calm Calm -- 29.89 in1012.2 mb 0.00 in0.0 mm 0.00 in0.0 mm 1.57 in39.9 mm
08:25 PM 85.7°F29.8°C 74.4°F23.6°C 69% Calm Calm -- 29.89 in1012.2 mb 0.00 in0.0 mm 0.00 in0.0 mm 1.57 in39.9 mm
08:29 PM 85.5°F29.7°C 74.2°F23.4°C 69% Calm Calm -- 29.89 in1012.2 mb 0.00 in0.0 mm 0.00 in0.0 mm 1.57 in39.9 mm
08:35 PM 85.4°F29.7°C 74.5°F23.6°C 70% Calm Calm -- 29.89 in1012.2 mb 0.00 in0.0 mm 0.00 in0.0 mm 1.57 in39.9 mm
08:40 PM 85.2°F29.6°C 74.3°F23.5°C 70% Calm Calm -- 29.89 in1012.2 mb 0.00 in0.0 mm 0.00 in0.0 mm 1.57 in39.9 mm
08:45 PM 85.0°F29.4°C 74.6°F23.7°C 71% Calm Calm -- 29.89 in1012.2 mb 0.00 in0.0 mm 0.00 in0.0 mm 1.57 in39.9 mm
08:49 PM 84.7°F29.3°C 74.7°F23.7°C 72% Calm Calm -- 29.90 in1012.5 mb 0.00 in0.0 mm 0.00 in0.0 mm 1.57 in39.9 mm
08:55 PM 84.5°F29.2°C 74.1°F23.4°C 71% Calm Calm 1.0 mph1.6 kmh 29.90 in1012.5 mb 0.00 in0.0 mm 0.00 in0.0 mm 1.57 in39.9 mm
09:00 PM 84.3°F29.1°C 74.3°F23.5°C 72% Calm Calm -- 29.90 in1012.5 mb 0.00 in0.0 mm 0.00 in0.0 mm 1.57 in39.9 mm
09:05 PM 84.2°F29.0°C 74.2°F23.4°C 72% Calm Calm -- 29.91 in1012.9 mb 0.00 in0.0 mm 0.00 in0.0 mm 1.57 in39.9 mm
09:10 PM 84.0°F28.9°C 74.4°F23.6°C 73% Calm Calm -- 29.91 in1012.9 mb 0.00 in0.0 mm 0.00 in0.0 mm 1.57 in39.9 mm
09:14 PM 83.8°F28.8°C 74.2°F23.4°C 73% Calm Calm -- 29.90 in1012.5 mb 0.00 in0.0 mm 0.00 in0.0 mm 1.57 in39.9 mm
09:19 PM 83.6°F28.7°C 74.0°F23.3°C 73% Calm Calm -- 29.91 in1012.9 mb 0.00 in0.0 mm 0.00 in0.0 mm 1.57 in39.9 mm
09:25 PM 83.4°F28.6°C 74.3°F23.5°C 74% Calm Calm -- 29.91 in1012.9 mb 0.00 in0.0 mm 0.00 in0.0 mm 1.57 in39.9 mm
09:30 PM 83.3°F28.5°C 74.2°F23.4°C 74% Calm Calm -- 29.91 in1012.9 mb 0.00 in0.0 mm 0.00 in0.0 mm 1.57 in39.9 mm
09:35 PM 83.2°F28.4°C 74.1°F23.4°C 74% Calm Calm -- 29.91 in1012.9 mb 0.00 in0.0 mm 0.00 in0.0 mm 1.57 in39.9 mm
09:40 PM 83.0°F28.3°C 74.3°F23.5°C 75% Calm Calm -- 29.91 in1012.9 mb 0.00 in0.0 mm 0.00 in0.0 mm 1.57 in39.9 mm
09:45 PM 82.9°F28.3°C 74.6°F23.7°C 76% Calm Calm -- 29.90 in1012.5 mb 0.00 in0.0 mm 0.00 in0.0 mm 1.57 in39.9 mm
09:50 PM 82.8°F28.2°C 74.5°F23.6°C 76% Calm Calm -- 29.91 in1012.9 mb 0.00 in0.0 mm 0.00 in0.0 mm 1.57 in39.9 mm
09:54 PM 82.6°F28.1°C 74.7°F23.7°C 77% Calm Calm -- 29.91 in1012.9 mb 0.00 in0.0 mm 0.00 in0.0 mm 1.57 in39.9 mm
10:00 PM 82.5°F28.1°C 74.6°F23.7°C 77% Calm Calm -- 29.91 in1012.9 mb 0.00 in0.0 mm 0.00 in0.0 mm 1.57 in39.9 mm
10:05 PM 82.3°F27.9°C 74.4°F23.6°C 77% Calm Calm -- 29.91 in1012.9 mb 0.00 in0.0 mm 0.00 in0.0 mm 1.57 in39.9 mm
10:10 PM 82.1°F27.8°C 74.6°F23.7°C 78% Calm Calm -- 29.91 in1012.9 mb 0.00 in0.0 mm 0.00 in0.0 mm 1.57 in39.9 mm
10:15 PM 81.9°F27.7°C 74.8°F23.8°C 79% Calm Calm -- 29.91 in1012.9 mb 0.00 in0.0 mm 0.00 in0.0 mm 1.57 in39.9 mm
10:20 PM 81.7°F27.6°C 74.6°F23.7°C 79% Calm Calm -- 29.91 in1012.9 mb 0.00 in0.0 mm 0.00 in0.0 mm 1.57 in39.9 mm
10:25 PM 81.5°F27.5°C 74.4°F23.6°C 79% Calm Calm -- 29.92 in1013.2 mb 0.00 in0.0 mm 0.00 in0.0 mm 1.57 in39.9 mm
10:30 PM 81.4°F27.4°C 74.6°F23.7°C 80% Calm Calm -- 29.91 in1012.9 mb 0.00 in0.0 mm 0.00 in0.0 mm 1.57 in39.9 mm
10:35 PM 81.2°F27.3°C 74.5°F23.6°C 80% Calm Calm -- 29.91 in1012.9 mb 0.00 in0.0 mm 0.00 in0.0 mm 1.57 in39.9 mm
10:40 PM 81.1°F27.3°C 74.7°F23.7°C 81% Calm Calm 1.0 mph1.6 kmh 29.91 in1012.9 mb 0.00 in0.0 mm 0.00 in0.0 mm 1.57 in39.9 mm
10:45 PM 80.9°F27.2°C 74.5°F23.6°C 81% Calm Calm -- 29.91 in1012.9 mb 0.00 in0.0 mm 0.00 in0.0 mm 1.57 in39.9 mm
10:50 PM 80.8°F27.1°C 74.8°F23.8°C 82% Calm Calm -- 29.91 in1012.9 mb 0.00 in0.0 mm 0.00 in0.0 mm 1.57 in39.9 mm
10:55 PM 80.6°F27.0°C 74.6°F23.7°C 82% Calm Calm -- 29.91 in1012.9 mb 0.00 in0.0 mm 0.00 in0.0 mm 1.57 in39.9 mm
11:00 PM 80.5°F26.9°C 74.5°F23.6°C 82% Calm Calm -- 29.91 in1012.9 mb 0.00 in0.0 mm 0.00 in0.0 mm 1.57 in39.9 mm
11:05 PM 80.4°F26.9°C 74.8°F23.8°C 83% Calm Calm -- 29.91 in1012.9 mb 0.00 in0.0 mm 0.00 in0.0 mm 1.57 in39.9 mm
11:09 PM 80.2°F26.8°C 74.6°F23.7°C 83% Calm Calm -- 29.91 in1012.9 mb 0.00 in0.0 mm 0.00 in0.0 mm 1.57 in39.9 mm
11:14 PM 80.1°F26.7°C 74.5°F23.6°C 83% Calm Calm -- 29.91 in1012.9 mb 0.00 in0.0 mm 0.00 in0.0 mm 1.57 in39.9 mm
11:20 PM 80.0°F26.7°C 74.4°F23.6°C 83% Calm Calm -- 29.90 in1012.5 mb 0.00 in0.0 mm 0.00 in0.0 mm 1.57 in39.9 mm
11:24 PM 79.9°F26.6°C 74.6°F23.7°C 84% Calm Calm -- 29.90 in1012.5 mb 0.00 in0.0 mm 0.00 in0.0 mm 1.57 in39.9 mm
11:30 PM 79.8°F26.6°C 74.9°F23.8°C 85% Calm Calm -- 29.90 in1012.5 mb 0.00 in0.0 mm 0.00 in0.0 mm 1.57 in39.9 mm
11:34 PM 79.7°F26.5°C 74.8°F23.8°C 85% Calm Calm -- 29.90 in1012.5 mb 0.00 in0.0 mm 0.00 in0.0 mm 1.57 in39.9 mm
11:40 PM 79.6°F26.4°C 74.7°F23.7°C 85% Calm Calm -- 29.90 in1012.5 mb 0.00 in0.0 mm 0.00 in0.0 mm 1.57 in39.9 mm
11:45 PM 79.5°F26.4°C 74.6°F23.7°C 85% Calm Calm -- 29.90 in1012.5 mb 0.00 in0.0 mm 0.00 in0.0 mm 1.57 in39.9 mm
11:50 PM 79.4°F26.3°C 74.5°F23.6°C 85% Calm Calm -- 29.90 in1012.5 mb 0.00 in0.0 mm 0.00 in0.0 mm 1.57 in39.9 mm
11:55 PM 79.3°F26.3°C 74.8°F23.8°C 86% Calm Calm -- 29.90 in1012.5 mb 0.00 in0.0 mm 0.00 in0.0 mm 1.57 in39.9 mm
11:59 PM 79.1°F26.2°C 74.6°F23.7°C 86% Calm Calm -- 29.90 in1012.5 mb 0.00 in0.0 mm 0.00 in0.0 mm 1.57 in39.9 mm